createdAt,value
2023-02-09T00:00:24.993Z,94.56
2023-02-09T00:02:51.917Z,94.54
2023-02-09T00:05:18.832Z,95.94
2023-02-09T00:07:45.684Z,97.10
2023-02-09T00:10:12.906Z,96.45
2023-02-09T00:12:58.900Z,95.77
2023-02-09T00:15:25.829Z,95.62
2023-02-09T00:17:52.834Z,95.94
2023-02-09T00:20:19.924Z,96.19
2023-02-09T00:22:46.835Z,95.76
2023-02-09T00:25:13.680Z,95.39
2023-02-09T00:27:40.629Z,95.38
2023-02-09T00:30:08.112Z,95.42
2023-02-09T00:32:35.990Z,95.21
2023-02-09T00:35:02.805Z,95.14
2023-02-09T00:37:29.761Z,94.98
2023-02-09T00:39:57.723Z,94.80
2023-02-09T00:42:24.589Z,94.67
2023-02-09T00:44:51.458Z,94.57
2023-02-09T00:47:18.392Z,94.46
2023-02-09T00:49:45.744Z,94.53
2023-02-09T00:52:12.724Z,94.44
2023-02-09T00:54:39.648Z,94.39
2023-02-09T00:57:06.663Z,94.34
2023-02-09T00:59:35.078Z,94.34
2023-02-09T01:02:02.058Z,94.57
2023-02-09T01:04:29.423Z,94.45
2023-02-09T01:06:56.435Z,94.42
2023-02-09T01:09:23.475Z,94.31
2023-02-09T01:11:50.264Z,94.15
2023-02-09T01:14:17.468Z,94.03
2023-02-09T01:16:44.448Z,93.81
2023-02-09T01:19:13.662Z,93.87
2023-02-09T01:21:40.942Z,94.47
2023-02-09T01:24:08.661Z,94.48
2023-02-09T01:26:35.529Z,94.55
2023-02-09T01:29:02.416Z,94.51
2023-02-09T01:31:34.724Z,94.40
2023-02-09T01:34:03.287Z,94.45
2023-02-09T01:36:31.340Z,94.51
2023-02-09T01:39:00.336Z,94.58
2023-02-09T01:41:27.895Z,94.67
2023-02-09T01:43:57.520Z,94.47
2023-02-09T01:46:26.211Z,94.41
2023-02-09T01:49:07.795Z,94.29
2023-02-09T01:51:38.591Z,94.20
2023-02-09T01:54:08.712Z,94.07
2023-02-09T01:56:36.033Z,93.94
2023-02-09T01:59:02.885Z,93.91
2023-02-09T02:01:30.429Z,93.84
2023-02-09T02:03:57.321Z,93.69
2023-02-09T02:06:24.256Z,93.67
2023-02-09T02:08:58.147Z,93.63
2023-02-09T02:11:28.252Z,93.52
2023-02-09T02:13:56.818Z,93.64
2023-02-09T02:16:23.549Z,93.85
2023-02-09T02:18:54.942Z,93.86
2023-02-09T02:21:36.406Z,93.81
2023-02-09T02:24:23.921Z,93.62
2023-02-09T02:27:19.712Z,93.59
2023-02-09T02:30:17.609Z,94.07
2023-02-09T02:33:08.285Z,94.19
2023-02-09T02:35:39.783Z,94.20
2023-02-09T02:38:36.735Z,94.17
2023-02-09T02:41:06.498Z,94.04
2023-02-09T02:43:39.128Z,93.85
2023-02-09T02:46:11.588Z,93.73
2023-02-09T02:49:07.587Z,93.63
2023-02-09T02:51:39.137Z,93.68
2023-02-09T02:54:09.938Z,93.63
2023-02-09T02:56:39.453Z,93.66
2023-02-09T02:59:09.610Z,93.57
2023-02-09T03:01:48.354Z,93.49
2023-02-09T03:04:16.044Z,93.57
2023-02-09T03:06:42.948Z,93.51
2023-02-09T03:09:10.082Z,93.61
2023-02-09T03:11:43.196Z,93.83
2023-02-09T03:14:12.285Z,93.70
2023-02-09T03:16:57.133Z,93.92
2023-02-09T03:19:54.326Z,94.02
2023-02-09T03:22:31.647Z,93.94
2023-02-09T03:25:14.950Z,94.14
2023-02-09T03:27:45.661Z,93.98
2023-02-09T03:30:15.435Z,93.70
2023-02-09T03:32:45.929Z,93.51
2023-02-09T03:35:15.306Z,93.29
2023-02-09T03:37:42.336Z,93.20
2023-02-09T03:40:10.272Z,93.13
2023-02-09T03:42:42.826Z,92.84
2023-02-09T03:45:09.746Z,92.70
2023-02-09T03:47:36.623Z,92.67
2023-02-09T03:50:06.855Z,92.56
2023-02-09T03:52:36.272Z,92.33
2023-02-09T03:55:04.542Z,92.54
2023-02-09T03:57:31.455Z,92.95
2023-02-09T03:59:58.947Z,93.17
2023-02-09T04:02:25.984Z,93.29
2023-02-09T04:04:53.745Z,93.41
2023-02-09T04:07:20.667Z,93.35
2023-02-09T04:09:47.948Z,93.26
2023-02-09T04:12:14.908Z,93.16
2023-02-09T04:14:41.803Z,92.98
2023-02-09T04:17:08.705Z,92.87
2023-02-09T04:19:36.153Z,92.84
2023-02-09T04:22:03.345Z,92.82
2023-02-09T04:24:30.275Z,92.76
2023-02-09T04:26:57.317Z,92.93
2023-02-09T04:29:24.143Z,93.62
2023-02-09T04:31:51.224Z,94.39
2023-02-09T04:34:18.356Z,95.00
2023-02-09T04:36:45.144Z,95.45
2023-02-09T04:39:12.026Z,95.94
2023-02-09T04:41:39.153Z,95.81
2023-02-09T04:44:06.098Z,95.94
2023-02-09T04:46:32.931Z,96.04
2023-02-09T04:48:59.902Z,95.67
2023-02-09T04:51:26.744Z,95.47
2023-02-09T04:53:53.527Z,95.57
2023-02-09T04:56:20.436Z,95.95
2023-02-09T04:59:06.220Z,96.22
2023-02-09T05:01:33.265Z,96.31
2023-02-09T05:04:00.215Z,96.27
2023-02-09T05:06:27.221Z,96.58
2023-02-09T05:08:54.039Z,96.73
2023-02-09T05:11:20.837Z,96.51
2023-02-09T05:13:47.641Z,96.46
2023-02-09T05:16:15.913Z,96.21
2023-02-09T05:18:43.162Z,95.86
2023-02-09T05:21:10.108Z,95.84
2023-02-09T05:23:37.050Z,95.97
2023-02-09T05:26:04.074Z,95.88
2023-02-09T05:28:31.008Z,95.35
2023-02-09T05:30:58.136Z,95.65
2023-02-09T05:33:25.643Z,96.05
2023-02-09T05:35:53.303Z,96.28
2023-02-09T05:38:20.120Z,96.47
2023-02-09T05:40:47.535Z,95.90
2023-02-09T05:43:14.552Z,95.59
2023-02-09T05:45:41.473Z,95.27
2023-02-09T05:48:08.401Z,95.04
2023-02-09T05:50:36.112Z,95.10
2023-02-09T05:53:03.189Z,94.94
2023-02-09T05:55:30.082Z,94.78
2023-02-09T05:57:57.093Z,94.48
2023-02-09T06:00:25.264Z,94.14
2023-02-09T06:02:52.292Z,93.88
2023-02-09T06:05:20.998Z,93.64
2023-02-09T06:07:48.878Z,93.37
2023-02-09T06:10:17.348Z,93.29
2023-02-09T06:12:45.779Z,93.15
2023-02-09T06:15:13.078Z,93.13
2023-02-09T06:17:40.012Z,93.13
2023-02-09T06:20:07.616Z,93.23
2023-02-09T06:22:35.744Z,93.16
2023-02-09T06:25:03.966Z,93.20
2023-02-09T06:27:31.322Z,93.25
2023-02-09T06:29:58.349Z,93.11
2023-02-09T06:32:26.305Z,92.55
2023-02-09T06:34:53.188Z,87.95
2023-02-09T06:37:20.164Z,82.02
2023-02-09T06:39:47.099Z,79.31
2023-02-09T06:42:13.953Z,76.68
2023-02-09T06:44:40.809Z,74.69
2023-02-09T06:47:07.723Z,68.70
2023-02-09T06:49:34.620Z,64.00
2023-02-09T06:52:01.864Z,60.77
2023-02-09T06:54:29.378Z,57.74
2023-02-09T06:56:56.250Z,56.50
2023-02-09T06:59:23.371Z,54.82
2023-02-09T07:01:54.418Z,53.98
2023-02-09T07:04:21.885Z,56.14
2023-02-09T07:06:48.865Z,59.28
2023-02-09T07:09:15.657Z,55.84
2023-02-09T07:11:42.662Z,55.29
2023-02-09T07:14:09.649Z,55.64
2023-02-09T07:16:36.422Z,54.71
2023-02-09T07:19:03.401Z,52.61
2023-02-09T07:21:30.404Z,52.09
2023-02-09T07:23:57.525Z,52.07
2023-02-09T07:26:24.420Z,53.75
2023-02-09T07:28:51.231Z,54.32
2023-02-09T07:31:18.673Z,58.22
2023-02-09T07:33:45.800Z,60.73
2023-02-09T07:36:14.622Z,63.29
2023-02-09T07:38:41.815Z,68.48
2023-02-09T07:41:14.241Z,71.82
2023-02-09T07:43:41.074Z,73.48
2023-02-09T07:46:08.517Z,75.51
2023-02-09T07:48:36.491Z,77.41
2023-02-09T07:51:03.945Z,77.73
2023-02-09T07:53:30.835Z,78.54
2023-02-09T07:55:57.802Z,77.91
2023-02-09T07:58:24.782Z,79.15
2023-02-09T08:00:52.243Z,79.31
2023-02-09T08:03:21.281Z,79.51
2023-02-09T08:05:53.705Z,81.11
2023-02-09T08:08:20.547Z,80.34
2023-02-09T08:10:49.315Z,80.98
2023-02-09T08:13:16.415Z,82.92
2023-02-09T08:15:46.253Z,83.61
2023-02-09T08:18:20.269Z,83.84
2023-02-09T08:20:48.002Z,84.53
2023-02-09T08:23:23.406Z,84.20
2023-02-09T08:25:51.621Z,84.94
2023-02-09T08:28:19.806Z,83.55
2023-02-09T08:31:06.608Z,82.92
2023-02-09T08:33:33.444Z,82.39
2023-02-09T08:36:00.264Z,82.53
2023-02-09T08:38:27.443Z,82.86
2023-02-09T08:40:54.209Z,82.69
2023-02-09T08:43:20.963Z,82.54
2023-02-09T08:45:48.251Z,82.59
2023-02-09T08:48:15.473Z,82.77
2023-02-09T08:50:42.419Z,81.44
2023-02-09T08:53:09.264Z,81.83
2023-02-09T08:55:38.503Z,81.32
2023-02-09T08:58:05.793Z,80.40
2023-02-09T09:00:32.786Z,80.31
2023-02-09T09:03:04.651Z,80.04
2023-02-09T09:05:32.184Z,79.33
2023-02-09T09:07:59.151Z,78.65
2023-02-09T09:10:26.004Z,78.11
2023-02-09T09:12:53.030Z,77.67
2023-02-09T09:15:20.021Z,76.04
2023-02-09T09:17:46.977Z,75.54
2023-02-09T09:20:13.845Z,72.32
2023-02-09T09:22:40.609Z,71.58
2023-02-09T09:25:07.857Z,64.44
2023-02-09T09:27:37.435Z,61.77
2023-02-09T09:30:05.061Z,64.11
2023-02-09T09:32:32.089Z,64.21
2023-02-09T09:34:59.364Z,60.49
2023-02-09T09:37:26.698Z,62.97
2023-02-09T09:39:53.839Z,60.74
2023-02-09T09:42:44.337Z,61.50
2023-02-09T09:45:14.960Z,61.49
2023-02-09T09:47:43.423Z,62.88
2023-02-09T09:50:17.654Z,61.56
2023-02-09T09:52:58.071Z,60.30
2023-02-09T09:55:29.904Z,60.92
2023-02-09T09:57:59.850Z,60.42
2023-02-09T10:00:34.939Z,59.48
2023-02-09T10:03:02.587Z,59.67
2023-02-09T10:05:39.564Z,57.81
2023-02-09T10:08:23.522Z,58.56
2023-02-09T10:11:10.841Z,58.41
2023-02-09T10:13:57.116Z,56.71
2023-02-09T10:16:34.657Z,54.41
2023-02-09T10:19:04.003Z,55.61
2023-02-09T10:21:33.576Z,56.93
2023-02-09T10:24:00.533Z,56.67
2023-02-09T10:26:32.335Z,55.67
2023-02-09T10:29:07.898Z,56.15
2023-02-09T10:31:40.501Z,55.35
2023-02-09T10:34:16.032Z,54.63
2023-02-09T10:36:45.826Z,54.91
2023-02-09T10:39:15.525Z,52.99
2023-02-09T10:41:44.508Z,52.42
2023-02-09T10:44:39.457Z,52.62
2023-02-09T10:47:11.055Z,52.67
2023-02-09T10:49:39.979Z,53.35
2023-02-09T10:52:14.253Z,52.52
2023-02-09T10:54:47.537Z,52.51
2023-02-09T10:57:40.620Z,52.42
2023-02-09T11:00:16.406Z,50.50
2023-02-09T11:02:52.706Z,51.09
2023-02-09T11:05:22.219Z,51.58
2023-02-09T11:07:59.296Z,50.63
2023-02-09T11:10:27.894Z,51.38
2023-02-09T11:12:55.272Z,51.32
2023-02-09T11:15:38.597Z,50.39
2023-02-09T11:18:17.342Z,49.96
2023-02-09T11:20:52.077Z,50.63
2023-02-09T11:23:43.016Z,51.19
2023-02-09T11:26:37.652Z,49.77
2023-02-09T11:29:24.541Z,49.40
2023-02-09T11:32:03.521Z,50.29
2023-02-09T11:34:51.848Z,50.96
2023-02-09T11:37:47.845Z,50.17
2023-02-09T11:40:46.809Z,50.87
2023-02-09T11:43:34.308Z,50.57
2023-02-09T11:46:05.556Z,50.15
2023-02-09T11:48:36.261Z,50.33
2023-02-09T11:51:20.467Z,49.10
2023-02-09T11:54:00.718Z,49.24
2023-02-09T11:56:28.431Z,47.53
2023-02-09T11:59:03.586Z,48.51
2023-02-09T12:01:33.354Z,47.92
2023-02-09T12:04:13.121Z,47.66
2023-02-09T12:06:45.264Z,47.42
2023-02-09T12:09:37.932Z,46.99
2023-02-09T12:12:13.244Z,47.14
2023-02-09T12:15:24.542Z,46.14
2023-02-09T12:17:56.267Z,45.39
2023-02-09T12:20:27.450Z,46.16
2023-02-09T12:23:02.245Z,47.14
2023-02-09T12:25:51.450Z,46.49
2023-02-09T12:29:03.631Z,47.83
2023-02-09T12:31:32.282Z,47.67
2023-02-09T12:33:59.120Z,47.78
2023-02-09T12:36:31.228Z,47.68
2023-02-09T12:39:23.847Z,47.23
2023-02-09T12:41:50.764Z,46.58
2023-02-09T12:44:18.370Z,47.52
2023-02-09T12:46:45.326Z,47.83
2023-02-09T12:49:12.141Z,47.44
2023-02-09T12:51:54.100Z,46.83
2023-02-09T12:54:45.450Z,47.24
2023-02-09T12:57:14.943Z,47.65
2023-02-09T12:59:42.301Z,47.88
2023-02-09T13:02:13.301Z,47.97
2023-02-09T13:04:49.195Z,47.57
2023-02-09T13:07:30.362Z,47.39
2023-02-09T13:10:13.534Z,45.79
2023-02-09T13:12:43.250Z,46.84
2023-02-09T13:15:15.137Z,46.90
2023-02-09T13:18:00.931Z,46.57
2023-02-09T13:20:30.673Z,45.56
2023-02-09T13:23:20.788Z,45.89
2023-02-09T13:25:48.139Z,45.60
2023-02-09T13:28:22.690Z,44.89
2023-02-09T13:30:49.631Z,45.59
2023-02-09T13:33:35.075Z,45.66
2023-02-09T13:36:25.589Z,46.11
2023-02-09T13:38:52.872Z,46.03
2023-02-09T13:41:30.957Z,45.67
2023-02-09T13:43:58.142Z,44.40
2023-02-09T13:46:34.136Z,45.25
2023-02-09T13:49:17.462Z,45.88
2023-02-09T13:51:44.376Z,44.10
2023-02-09T13:54:18.186Z,45.81
2023-02-09T13:56:45.665Z,45.99
2023-02-09T13:59:17.500Z,46.33
2023-02-09T14:01:48.296Z,46.13
2023-02-09T14:04:18.972Z,45.77
2023-02-09T14:07:11.965Z,44.93
2023-02-09T14:09:51.678Z,45.67
2023-02-09T14:12:52.083Z,44.13
2023-02-09T14:15:49.032Z,45.33
2023-02-09T14:18:23.086Z,45.05
2023-02-09T14:21:15.339Z,45.15
2023-02-09T14:23:46.599Z,45.63
2023-02-09T14:26:27.728Z,45.67
2023-02-09T14:29:06.703Z,45.99
2023-02-09T14:31:34.908Z,46.22
2023-02-09T14:34:01.828Z,46.40
2023-02-09T14:36:36.448Z,46.73
2023-02-09T14:39:20.801Z,46.87
2023-02-09T14:42:02.499Z,46.59
2023-02-09T14:44:30.250Z,46.88
2023-02-09T14:46:59.580Z,47.21
2023-02-09T14:49:27.820Z,47.42
2023-02-09T14:52:10.767Z,47.52
2023-02-09T14:54:48.709Z,47.05
2023-02-09T14:57:15.710Z,47.62
2023-02-09T14:59:42.633Z,47.63
2023-02-09T15:02:19.391Z,47.47
2023-02-09T15:04:46.790Z,47.12
2023-02-09T15:07:19.260Z,47.41
2023-02-09T15:09:46.489Z,47.61
2023-02-09T15:12:26.981Z,46.83
2023-02-09T15:14:59.544Z,47.57
2023-02-09T15:17:29.654Z,48.22
2023-02-09T15:19:57.958Z,48.64
2023-02-09T15:22:25.471Z,49.18
2023-02-09T15:24:54.449Z,49.60
2023-02-09T15:27:27.186Z,50.04
2023-02-09T15:29:56.162Z,50.21
2023-02-09T15:32:24.860Z,50.60
2023-02-09T15:34:52.488Z,50.91
2023-02-09T15:37:27.671Z,51.26
2023-02-09T15:39:58.943Z,51.73
2023-02-09T15:42:44.537Z,52.24
2023-02-09T15:45:41.655Z,52.79
2023-02-09T15:48:09.377Z,53.51
2023-02-09T15:50:41.928Z,54.13
2023-02-09T15:53:11.998Z,54.52
2023-02-09T15:55:39.875Z,55.48
2023-02-09T15:58:24.328Z,55.87
2023-02-09T16:00:51.272Z,56.74
2023-02-09T16:03:20.519Z,57.07
2023-02-09T16:05:53.884Z,57.81
2023-02-09T16:08:26.345Z,58.70
2023-02-09T16:10:53.726Z,59.12
2023-02-09T16:13:21.084Z,59.95
2023-02-09T16:15:48.527Z,60.44
2023-02-09T16:18:15.547Z,60.62
2023-02-09T16:20:47.098Z,60.96
2023-02-09T16:23:20.837Z,61.54
2023-02-09T16:25:50.265Z,61.83
2023-02-09T16:28:17.587Z,61.77
2023-02-09T16:31:02.686Z,62.42
2023-02-09T16:33:29.536Z,63.18
2023-02-09T16:35:59.985Z,63.44
2023-02-09T16:38:27.474Z,63.97
2023-02-09T16:40:55.040Z,64.51
2023-02-09T16:43:23.057Z,64.86
2023-02-09T16:46:02.849Z,65.28
2023-02-09T16:48:32.225Z,65.69
2023-02-09T16:50:59.465Z,66.33
2023-02-09T16:53:33.419Z,67.81
2023-02-09T16:56:02.084Z,68.54
2023-02-09T16:58:29.109Z,69.37
2023-02-09T17:00:57.828Z,68.52
2023-02-09T17:03:39.710Z,68.76
2023-02-09T17:06:16.919Z,70.08
2023-02-09T17:08:44.544Z,69.77
2023-02-09T17:11:25.972Z,69.92
2023-02-09T17:13:53.202Z,70.53
2023-02-09T17:16:25.966Z,70.48
2023-02-09T17:18:55.747Z,71.36
2023-02-09T17:21:27.370Z,71.72
2023-02-09T17:23:54.855Z,73.13
2023-02-09T17:26:21.965Z,74.79
2023-02-09T17:28:49.872Z,76.89
2023-02-09T17:31:26.416Z,77.01
2023-02-09T17:33:57.039Z,77.54
2023-02-09T17:36:27.707Z,76.94
2023-02-09T17:38:57.742Z,76.50
2023-02-09T17:41:46.502Z,76.42
2023-02-09T17:44:39.154Z,76.47
2023-02-09T17:47:03.500Z,76.03
2023-02-09T17:49:30.354Z,76.31
2023-02-09T17:51:57.611Z,76.72
2023-02-09T17:54:25.031Z,76.86
2023-02-09T17:56:51.831Z,76.91
2023-02-09T17:59:20.381Z,77.50
2023-02-09T18:01:50.217Z,77.78
2023-02-09T18:04:21.079Z,78.02
2023-02-09T18:06:48.891Z,77.87
2023-02-09T18:09:16.042Z,77.98
2023-02-09T18:11:52.276Z,78.70
2023-02-09T18:14:21.195Z,79.53
2023-02-09T18:16:48.577Z,79.23
2023-02-09T18:19:16.287Z,79.49
2023-02-09T18:21:52.064Z,79.93
2023-02-09T18:24:21.115Z,80.07
2023-02-09T18:26:49.997Z,79.84
2023-02-09T18:29:23.209Z,80.09
2023-02-09T18:31:51.129Z,80.18
2023-02-09T18:34:18.266Z,80.46
2023-02-09T18:36:45.715Z,80.11
2023-02-09T18:39:15.236Z,80.54
2023-02-09T18:41:43.765Z,80.89
2023-02-09T18:44:10.951Z,79.99
2023-02-09T18:46:38.285Z,81.18
2023-02-09T18:49:05.410Z,81.24
2023-02-09T18:51:32.616Z,81.99
2023-02-09T18:54:00.258Z,82.26
2023-02-09T18:56:28.349Z,81.24
2023-02-09T18:58:55.658Z,82.32
2023-02-09T19:01:23.913Z,82.63
2023-02-09T19:03:52.060Z,82.87
2023-02-09T19:06:20.513Z,83.00
2023-02-09T19:08:50.367Z,82.79
2023-02-09T19:11:20.276Z,82.77
2023-02-09T19:14:08.032Z,83.22
2023-02-09T19:16:41.018Z,83.49
2023-02-09T19:19:09.485Z,83.70
2023-02-09T19:21:36.530Z,83.37
2023-02-09T19:24:05.148Z,84.12
2023-02-09T19:26:32.391Z,84.28
2023-02-09T19:28:59.192Z,84.54
2023-02-09T19:31:26.585Z,84.60
2023-02-09T19:33:57.442Z,85.02
2023-02-09T19:36:27.638Z,85.29
2023-02-09T19:38:56.132Z,86.85
2023-02-09T19:41:25.552Z,86.49
2023-02-09T19:43:57.612Z,89.08
2023-02-09T19:46:25.176Z,89.69
2023-02-09T19:48:53.816Z,89.49
2023-02-09T19:51:21.763Z,89.38
2023-02-09T19:53:49.243Z,89.15
2023-02-09T19:56:19.369Z,89.37
2023-02-09T19:58:46.927Z,88.93
2023-02-09T20:01:14.237Z,88.75
2023-02-09T20:03:41.640Z,88.30
2023-02-09T20:06:11.670Z,88.10
2023-02-09T20:08:39.420Z,87.68
2023-02-09T20:11:07.727Z,87.38
2023-02-09T20:13:35.442Z,87.07
2023-02-09T20:16:10.622Z,87.21
2023-02-09T20:18:37.981Z,87.07
2023-02-09T20:21:08.622Z,87.13
2023-02-09T20:23:36.846Z,87.15
2023-02-09T20:26:15.943Z,86.81
2023-02-09T20:28:44.098Z,87.25
2023-02-09T20:31:11.259Z,87.20
2023-02-09T20:33:39.426Z,87.38
2023-02-09T20:36:09.004Z,87.11
2023-02-09T20:38:37.101Z,87.16
2023-02-09T20:41:09.175Z,86.99
2023-02-09T20:43:56.232Z,87.46
2023-02-09T20:46:44.219Z,87.83
2023-02-09T20:49:13.990Z,88.00
2023-02-09T20:51:41.556Z,87.67
2023-02-09T20:54:08.681Z,87.99
2023-02-09T20:56:36.297Z,87.93
2023-02-09T20:59:04.463Z,87.96
2023-02-09T21:01:31.521Z,88.47
2023-02-09T21:04:00.273Z,88.84
2023-02-09T21:06:27.421Z,89.34
2023-02-09T21:08:54.640Z,89.53
2023-02-09T21:11:21.630Z,89.71
2023-02-09T21:13:48.624Z,89.93
2023-02-09T21:16:16.404Z,89.95
2023-02-09T21:18:45.720Z,91.21
2023-02-09T21:21:16.933Z,91.42
2023-02-09T21:23:45.201Z,91.08
2023-02-09T21:26:14.366Z,90.77
2023-02-09T21:28:41.406Z,90.77
2023-02-09T21:31:13.210Z,90.61
2023-02-09T21:33:40.208Z,90.48
2023-02-09T21:36:07.685Z,90.23
2023-02-09T21:38:36.996Z,90.31
2023-02-09T21:41:32.896Z,90.06
2023-02-09T21:43:59.905Z,90.02
2023-02-09T21:46:27.852Z,89.56
2023-02-09T21:48:55.698Z,89.46
2023-02-09T21:51:22.943Z,89.69
2023-02-09T21:53:50.105Z,89.84
2023-02-09T21:56:17.146Z,89.95
2023-02-09T21:58:44.447Z,89.86
2023-02-09T22:01:11.747Z,90.33
2023-02-09T22:03:39.207Z,90.15
2023-02-09T22:06:07.051Z,90.19
2023-02-09T22:08:34.120Z,89.79
2023-02-09T22:11:06.033Z,89.97
2023-02-09T22:13:33.472Z,90.03
2023-02-09T22:16:00.616Z,89.92
2023-02-09T22:18:27.546Z,90.07
2023-02-09T22:20:54.831Z,90.11
2023-02-09T22:23:22.372Z,90.26
2023-02-09T22:25:49.278Z,90.51
2023-02-09T22:28:16.285Z,90.58
2023-02-09T22:30:43.198Z,90.52
2023-02-09T22:33:10.181Z,90.58
2023-02-09T22:35:41.102Z,90.62
2023-02-09T22:38:08.035Z,90.52
2023-02-09T22:40:34.940Z,90.89
2023-02-09T22:43:01.852Z,91.19
2023-02-09T22:45:28.702Z,92.03
2023-02-09T22:47:55.571Z,93.39
2023-02-09T22:50:22.713Z,93.40
2023-02-09T22:52:49.732Z,93.40
2023-02-09T22:55:16.549Z,94.93
2023-02-09T22:57:43.406Z,94.86
2023-02-09T23:00:12.316Z,94.47
2023-02-09T23:02:39.185Z,94.11
2023-02-09T23:05:06.238Z,93.57
2023-02-09T23:07:33.299Z,93.23
2023-02-09T23:10:00.143Z,92.65
2023-02-09T23:12:26.960Z,92.44
2023-02-09T23:14:54.805Z,92.43
2023-02-09T23:17:21.732Z,92.30
2023-02-09T23:19:48.630Z,92.24
2023-02-09T23:22:15.463Z,92.24
2023-02-09T23:24:42.396Z,92.34
2023-02-09T23:27:09.273Z,92.38
2023-02-09T23:29:36.141Z,92.16
2023-02-09T23:32:02.980Z,92.05
2023-02-09T23:34:29.827Z,91.92
2023-02-09T23:37:02.028Z,91.79
2023-02-09T23:39:37.154Z,91.59
2023-02-09T23:42:04.177Z,91.51
2023-02-09T23:44:30.976Z,91.59
2023-02-09T23:46:57.816Z,91.62
2023-02-09T23:49:24.660Z,91.52
2023-02-09T23:51:51.723Z,91.57
2023-02-09T23:54:18.778Z,91.57
2023-02-09T23:56:46.722Z,91.60
2023-02-09T23:59:14.958Z,91.62
